Terminal Aerodrome Forecast
Issued by NWS

Current Version | Previous Version | Text Only | Print | Product List | Glossary Off
Versions: 1 2 3 4 5 6 7 8 9 10 11 12 13 14 15 16 17 18 19 20

000
FTUS41 KRNK 241150 AAA
TAFLWB
TAF AMD
KLWB 241150Z 2412/2512 00000KT 4SM BR SCT150
      TEMPO 2412/2413 1SM BR VV007
     FM241300 00000KT P6SM SCT150
     FM241800 18005KT P6SM FEW050
     FM250300 14005KT P6SM BKN030=

USA.gov is the U.S. government's official web portal to all federal, state and local government web resources and services.